Latest Coastal Weather Observations for Mackay

IDQ60701

Issued at 7:12 pm EST Saturday 16 February 2019 (issued every 10 minutes, with the page automatically refreshed every 10 minutes)

About coastal observations | Map of coastal stations | Coastal observations for QLD | Marine services | Other Formats
Station Details ID: 033119 Name: MACKAY M.O Lat: -21.12 Lon: 149.22 Height: 30.26 m
Data from the previous 72 hours. | See also: Recent months at Mackay
Date/Time
EST
Wind Sea
Height
m
Swell Vis
km
Cloud Weather Temp
°C
Press
hPa
Rain since
9am
mm
Dir  Spd
kts
Gust
kts
Height
m
Period
s
Dir
16/07:00pm SE 6 9 - - - - - Clear - 26.3 1011.3 0.2
16/06:30pm ESE 7 11 - - - - - Partly cloudy - 26.6 1011.1 0.2
16/06:00pm ESE 7 13 - - - - - Cloudy - 27.1 1010.8 0.2
16/05:30pm ESE 9 15 - - - - - - - 27.3 1010.6 0.2
16/05:00pm SE 9 14 - - - - - Partly cloudy - 27.5 1010.6 0.2
16/04:30pm SE 8 14 - - - - - Partly cloudy - 28.1 1010.7 0.2
16/04:00pm SE 9 15 - - - - - Partly cloudy - 28.2 1010.9 0.2
16/03:30pm SE 10 16 - - - - - Partly cloudy - 27.8 1011.0 0.2
16/03:00pm SE 11 19 - - - - - Mostly cloudy - 28.1 1011.4 0.2
16/02:30pm SE 10 16 - - - - - Partly cloudy - 27.5 1011.6 0.2
16/02:00pm SSE 12 19 - - - - - - - 29.4 1011.8 0.2
16/01:30pm SE 12 21 - - - - - - - 29.1 1012.1 0.2
16/01:00pm SSE 11 17 - - - - - Partly cloudy - 29.5 1012.5 0.2
16/12:30pm SSE 10 17 - - - - - Partly cloudy - 28.7 1013.1 0.2
16/12:00pm SSE 13 22 - - - - - Mostly clear - 29.4 1013.6 0.2
16/11:30am SSE 15 22 - - - - - - - 29.0 1013.8 0.2
16/11:00am SSE 13 21 - - - - - Partly cloudy - 29.5 1014.2 0.2
16/10:30am SSE 13 21 - - - - - Partly cloudy - 29.1 1014.3 0.2
16/10:00am SSE 14 23 - - - - - Partly cloudy - 29.0 1014.2 0.2
16/09:30am SSE 11 19 - - - - - Partly cloudy - 28.8 1014.2 0.2
16/09:00am S 10 15 - - - - - Cloudy - 27.8 1014.2 0.4
16/08:30am S 9 16 - - - - - Partly cloudy - 26.2 1014.1 0.4
16/08:00am S 9 14 - - - - - Partly cloudy - 26.8 1013.9 0.4
16/07:30am SSW 9 14 - - - - - Partly cloudy - 26.5 1013.7 0.4
16/07:00am SSE 10 15 - - - - - Partly cloudy - 26.7 1013.5 0.4
16/06:30am SSE 10 16 - - - - - Partly cloudy - 26.4 1013.1 0.4
16/06:00am SSE 11 17 - - - - - Mostly cloudy - 26.4 1012.8 0.4
16/05:30am SSE 10 16 - - - - - Partly cloudy - 26.2 1012.6 0.4
16/05:00am SE 10 17 - - - - - Partly cloudy - 26.4 1012.4 0.4
16/04:30am SSE 11 18 - - - - - Partly cloudy - 26.4 1012.4 0.4
16/04:00am SSE 12 20 - - - - - Partly cloudy - 26.5 1012.2 0.4
16/03:30am SE 12 23 - - - - - Partly cloudy - 26.8 1011.9 0.4
16/03:00am SE 11 18 - - - - - Mostly clear - 26.6 1011.9 0.4
16/02:30am SE 11 18 - - - - - Partly cloudy - 26.8 1012.1 0.4
16/02:00am SE 10 17 - - - - - Partly cloudy - 26.9 1012.3 0.4
16/01:30am SE 11 17 - - - - - Partly cloudy - 26.8 1012.5 0.4
16/01:00am SE 11 20 - - - - - Partly cloudy - 26.9 1012.8 0.4
16/12:30am SE 10 16 - - - - - Partly cloudy - 27.1 1013.1 0.4
16/12:00am SE 10 17 - - - - - Mostly cloudy - 26.9 1013.4 0.4
 
Date/Time
EST
Wind Sea
Height
m
Swell Vis
km
Cloud Weather Temp
°C
Press
hPa
Rain since
9am
mm
Dir  Spd
kts
Gust
kts
Height
m
Period
s
Dir
15/11:30pm SE 10 16 - - - - - Partly cloudy - 26.9 1013.6 0.4
15/11:00pm SE 10 17 - - - - - Partly cloudy - 27.0 1013.8 0.4
15/10:30pm SE 9 15 - - - - - Partly cloudy - 26.8 1013.6 0.4
15/10:00pm SE 9 14 - - - - - Partly cloudy - 26.2 1013.6 0.4
15/09:30pm SE 9 15 - - - - - Partly cloudy - 26.1 1013.6 0.4
15/09:00pm ESE 8 15 - - - - - Cloudy - 26.8 1013.7 0.4
15/08:30pm ESE 8 13 - - - - - Partly cloudy - 27.0 1013.3 0.4
15/08:00pm ESE 8 12 - - - - - Partly cloudy - 26.9 1013.1 0.4
15/07:30pm ESE 7 12 - - - - - Partly cloudy - 26.7 1012.9 0.4
15/07:00pm SE 7 11 - - - - - Partly cloudy - 27.3 1012.7 0.0
15/06:30pm SE 7 11 - - - - - Partly cloudy - 27.3 1012.5 0.0
15/06:00pm SE 7 12 - - - - - Partly cloudy - 27.9 1012.3 0.0
15/05:30pm SSE 8 13 - - - - - Partly cloudy - 28.6 1012.1 0.0
15/05:00pm SE 9 15 - - - - - - - 28.8 1011.9 0.0
15/04:30pm SE 9 15 - - - - - - - 29.0 1011.7 0.0
15/04:00pm ESE 9 15 - - - - - - - 29.3 1011.7 0.0
15/03:30pm SE 9 16 - - - - - - - 29.3 1011.9 0.0
15/03:00pm SE 8 15 - - - - - - - 29.7 1012.0 0.0
15/02:30pm SE 9 14 - - - - - Partly cloudy - 30.3 1012.2 0.0
15/02:00pm SE 9 15 - - - - - Partly cloudy - 30.0 1012.7 0.0
15/01:30pm SE 11 16 - - - - - - - 29.9 1012.8 0.0
15/01:00pm SSE 9 15 - - - - - - - 30.5 1013.0 0.0
15/12:30pm SSE 11 18 - - - - - - - 30.1 1013.3 0.0
15/12:00pm SSE 11 19 - - - - - Partly cloudy - 29.9 1013.8 0.0
15/11:30am SSE 10 15 - - - - - Partly cloudy - 29.8 1014.1 0.0
15/11:00am SE 10 16 - - - - - - - 29.7 1014.2 0.0
15/10:30am SE 10 16 - - - - - Partly cloudy - 29.8 1014.3 0.0
15/10:00am SE 9 15 - - - - - Partly cloudy - 28.9 1014.3 0.0
15/09:30am SSE 9 14 - - - - - Partly cloudy - 29.3 1014.3 0.0
15/09:00am SSE 8 12 - - - - - Partly cloudy - 29.0 1013.9 0.0
15/08:30am SE 8 14 - - - - - Partly cloudy - 28.6 1013.7 0.0
15/08:00am SE 8 12 - - - - - Partly cloudy - 28.0 1013.6 0.0
15/07:30am SE 7 12 - - - - - Partly cloudy - 28.2 1013.3 0.0
15/07:00am SE 7 11 - - - - - - - 27.4 1012.8 0.0
15/06:30am SE 7 9 - - - - - Partly cloudy - 26.7 1012.6 0.0
15/06:00am SE 6 10 - - - - - Mostly clear - 26.5 1012.3 0.0
15/05:30am ESE 6 11 - - - - - Partly cloudy - 26.8 1011.9 0.0
15/05:00am ESE 7 11 - - - - - Partly cloudy - 26.9 1011.7 0.0
15/04:30am E 6 11 - - - - - Partly cloudy - 26.7 1011.6 0.0
15/04:00am E 9 14 - - - - - - - 26.7 1011.4 0.0
15/03:30am E 7 12 - - - - - Partly cloudy - 26.9 1011.2 0.0
15/03:00am E 7 12 - - - - - Partly cloudy - 27.0 1011.0 0.0
15/02:30am E 7 11 - - - - - Partly cloudy - 27.0 1011.2 0.0
15/02:00am ENE 8 13 - - - - - Partly cloudy - 26.8 1011.2 0.0
15/01:30am ENE 8 11 - - - - - Partly cloudy - 26.7 1011.3 0.0
15/01:00am E 8 12 - - - - - - - 26.8 1011.5 0.0
15/12:30am ENE 8 13 - - - - - Partly cloudy - 26.9 1011.7 0.0
15/12:00am ENE 8 13 - - - - - Mostly cloudy - 27.2 1011.8 0.0
 
Date/Time
EST
Wind Sea
Height
m
Swell Vis
km
Cloud Weather Temp
°C
Press
hPa
Rain since
9am
mm
Dir  Spd
kts
Gust
kts
Height
m
Period
s
Dir
14/11:30pm ENE 10 15 - - - - - Partly cloudy - 27.5 1012.1 0.0
14/11:00pm E 11 15 - - - - - Partly cloudy - 27.4 1012.1 0.0
14/10:30pm E 10 15 - - - - - Partly cloudy - 27.4 1011.5 0.0
14/10:00pm ENE 7 11 - - - - - Partly cloudy - 27.3 1011.3 0.0
14/09:30pm E 9 14 - - - - - - - 27.6 1011.3 0.0
14/09:00pm E 9 12 - - - - - Mostly cloudy - 27.8 1011.4 0.0
14/08:30pm ESE 9 14 - - - - - Partly cloudy - 27.9 1011.3 0.0
14/08:00pm E 9 14 - - - - - Partly cloudy - 28.0 1010.9 0.0
14/07:33pm E 10 14 - - - - - Partly cloudy - 27.7 1010.2 0.0
14/07:30pm E 10 14 - - - - - Partly cloudy - 27.7 1010.2 0.0
14/07:16pm ENE 7 12 - - - - - Partly cloudy - 27.6 1009.8 0.0
14/07:00pm ENE 8 13 - - - - - Partly cloudy - 27.6 1009.4 0.0
14/06:30pm ENE 7 11 - - - - - - - 27.8 1008.7 0.0
14/06:00pm ENE 7 11 - - - - - Mostly clear - 28.3 1008.6 0.0
14/05:30pm ENE 7 14 - - - - - - - 28.9 1008.0 0.0
14/05:00pm ENE 9 15 - - - - - - - 29.3 1007.8 0.0
14/04:30pm E 9 14 - - - - - - - 29.6 1007.6 0.0
14/04:00pm E 8 12 - - - - - - - 29.6 1007.6 0.0
14/03:30pm E 7 11 - - - - - - - 30.0 1007.6 0.0
14/03:00pm ESE 6 9 - - - - - - - 29.6 1007.4 0.0
14/02:30pm E 7 11 - - - - - - - 29.7 1007.5 0.0
14/02:00pm ESE 6 9 - - - - - - - 29.7 1007.6 0.0
14/01:30pm ESE 7 10 - - - - - - - 29.9 1008.0 0.0
14/01:00pm SE 7 11 - - - - - - - 29.9 1008.3 0.0
14/12:30pm SE 7 11 - - - - - Partly cloudy - 29.7 1008.5 0.0
14/12:00pm SE 6 11 - - - - - Mostly clear - 29.8 1008.7 0.0
14/11:30am ESE 6 9 - - - - - - - 30.4 1008.8 0.0
14/11:00am SE 6 10 - - - - - Partly cloudy - 29.4 1009.0 0.0
14/10:30am ESE 6 10 - - - - - Partly cloudy - 30.2 1009.0 0.0
14/10:00am ESE 6 10 - - - - - Partly cloudy - 29.7 1008.8 0.0
14/09:30am ESE 6 11 - - - - - Partly cloudy - 29.4 1008.7 0.0
14/09:25am ESE 6 9 - - - - - Partly cloudy - 29.5 1008.6 0.0
14/09:01am SE 6 10 - - - - - Partly cloudy - 29.0 1008.6 0.0
14/09:00am SE 6 10 - - - - - Partly cloudy - 29.2 1008.6 0.0
14/08:30am ESE 6 9 - - - - - Partly cloudy - 28.8 1008.2 0.0
14/08:00am ESE 6 9 - - - - - Partly cloudy - 28.5 1007.8 0.0
14/07:43am ESE 6 10 - - - - - Partly cloudy - 27.4 1007.8 0.0
14/07:30am SSE 4 8 - - - - - Partly cloudy - 26.2 1007.7 0.0
14/07:00am SSW 4 6 - - - - - Partly cloudy - 25.1 1007.2 0.0
14/06:30am SW 6 8 - - - - - Partly cloudy - 24.3 1007.1 0.0
14/06:00am SW 5 6 - - - - - Mostly cloudy - 24.0 1006.1 0.0
14/05:30am SW 5 6 - - - - - Partly cloudy - 23.9 1005.7 0.0
14/05:16am SW 5 6 - - - - - Partly cloudy - 24.0 1005.5 0.0
14/05:14am WSW 5 6 - - - - - Partly cloudy - 24.0 1005.5 0.0
14/05:02am SW 5 6 - - - - - Partly cloudy - 23.9 1005.3 0.0
14/05:00am SSW 5 6 - - - - - Partly cloudy - 24.0 1005.3 0.0
14/04:30am SW 5 5 - - - - - - - 23.9 1005.1 0.0
14/04:00am WSW 4 5 - - - - - Partly cloudy - 24.1 1004.7 0.0
14/03:30am WSW 4 6 - - - - - - - 24.0 1004.7 0.0
14/03:00am SSW 3 6 - - - - - - - 23.5 1004.8 0.0
14/02:30am W 5 7 - - - - - - - 24.1 1004.6 0.0
14/02:00am WSW 5 7 - - - - - - - 24.0 1004.5 0.0
14/01:30am WSW 5 6 - - - - - - - 24.2 1004.8 0.0
14/01:00am WSW 6 7 - - - - - - - 24.4 1005.2 0.0
14/12:30am WSW 6 9 - - - - - - - 24.7 1005.4 0.0
14/12:00am WNW 4 5 - - - - - - - 25.5 1005.6 0.0
 
Date/Time
EST
Wind Sea
Height
m
Swell Vis
km
Cloud Weather Temp
°C
Press
hPa
Rain since
9am
mm
Dir  Spd
kts
Gust
kts
Height
m
Period
s
Dir
13/11:30pm WNW 4 5 - - - - - - - 25.9 1006.0 0.0
13/11:00pm NNW 4 5 - - - - - - - 25.9 1006.2 0.0
13/10:30pm NW 2 4 - - - - - - - 26.2 1006.3 0.0
13/10:00pm NW 3 4 - - - - - - - 26.3 1006.6 0.0
13/09:30pm NNW 4 5 - - - - - - - 26.7 1006.6 0.0
13/09:00pm CALM 0 3 - - - - - - - 27.3 1006.4 0.0
13/08:30pm E 3 3 - - - - - - - 27.1 1005.8 0.0
13/08:00pm NE 1 3 - - - - - - - 27.1 1005.5 0.0
13/07:30pm NNE 3 4 - - - - - - - 27.0 1005.3 0.0

Other Formats:

Comma delimited format used in spreadsheet applications
http://www.bom.gov.au/fwo/IDQ60701/IDQ60701.94367.axf

JavaScript Object Notation format (JSON) in row-major order
http://www.bom.gov.au/fwo/IDQ60701/IDQ60701.94367.json